Aérodrome :
LOGIN :

S'inscrire | Disclaimer

   EN    FR    IT 

 










Légende :    VFR   VFR Marginal   IFR   IFR Intensif   IFR Très Intensif
Visi : 
Plafond : 
>= 8 km
>= 3000ft
5 à 8 km
1000 à 3000 ft
1500m à 5 km
500 à 1000 ft
800 à 1500m
200 à 500 ft
< 800m
< 200 ft
Symboles :   Orages  Brouillard  Fortes neiges  Fortes précipitations  Vent > 20 kt
SIGMETs :   Divers  Orages  Givrage  Turbulence  Onde Orograph.  Cendres Volcan.







- Altitude de l'aérodrome : 1411 ft
- Code IATA : SZG


LOWS - Salzburg

DERNIER METAR :
  • 270120Z AUTO VRB02KT 9999 FEW140 BKN160 18/15 Q1011

METARs EXPIRÉS :
  • 270050Z AUTO 06004KT 9999 FEW160 BKN200 20/15 Q1011
  • 270020Z AUTO 03003KT 350V060 9999 //////CB FEW100 SCT150 BKN170 20/15 Q1011
  • 262350Z AUTO VRB02KT 9999 //////CB SCT110 BKN220 20/15 Q1011
  • 262320Z AUTO 31004KT 270V030 9999 VCTS //////CB FEW090 BKN100 20/15 Q1011
  • 262250Z AUTO 14003KT 110V190 9999 //////CB FEW100 19/15 Q1011

TAF TAF LOWS
Valide du 27 à 00h jusqu'au 28 à 00h UTC


262315Z 2700/2724 16005KT 9999 FEW070 SCT120 TX25/2715Z TN17/2724Z
TEMPO 2702/2709 29006KT -SHRA SCT060TCU BKN100
PROB30
TEMPO 2702/2706 29015G25KT TSRA SCT050CB BKN080
BECMG 2706/2708 34007KT
TEMPO 2713/2718 29013KT SHRA SCT060TCU BKN080
PROB30
TEMPO 2714/2717 31015G25KT TSRA SCT050CB BKN070
BECMG 2718/2720 16005KT
Pas de NOTAMs connus pour ce terrain.



MET'MAP, la Météo Aéronautique d'un coup d'oeil ! - Copyright ORBIFLY Décembre 2007 - Disclaimer

ORBIFLY MET'MAP TEAM :

Programmation & Développement : Alexandra Zaïnal
Conception & Développement : Baudouin d'Aumeries
Co-Programmation & Développement : Marc-Olivier Méhu
Soutien technique & logistique : Manuel Goepfert

Contact : metmap@orbifly.com




SOURCES & CREDITS :

   NOAA